sensor_id;sensor_type;location;lat;lon;timestamp;temperature;humidity
3923;DHT22;1976;51.694;6.256;2024-01-10T11:23:56;14.60;38.10
3923;DHT22;1976;51.694;6.256;2024-01-10T11:26:23;16.40;39.70
3923;DHT22;1976;51.694;6.256;2024-01-10T11:28:49;14.70;37.60
3923;DHT22;1976;51.694;6.256;2024-01-10T11:31:15;15.50;38.10
3923;DHT22;1976;51.694;6.256;2024-01-10T11:33:41;15.30;36.90
3923;DHT22;1976;51.694;6.256;2024-01-10T11:36:19;15.70;37.00
3923;DHT22;1976;51.694;6.256;2024-01-10T11:38:54;15.80;36.70
3923;DHT22;1976;51.694;6.256;2024-01-10T11:41:23;15.90;35.90
3923;DHT22;1976;51.694;6.256;2024-01-10T11:46:34;16.50;35.50
3923;DHT22;1976;51.694;6.256;2024-01-10T11:49:00;16.70;35.60
3923;DHT22;1976;51.694;6.256;2024-01-10T11:51:25;16.60;34.70
3923;DHT22;1976;51.694;6.256;2024-01-10T11:53:51;16.90;34.70
3923;DHT22;1976;51.694;6.256;2024-01-10T11:56:18;17.10;34.20
3923;DHT22;1976;51.694;6.256;2024-01-10T11:59:03;16.80;33.80
3923;DHT22;1976;51.694;6.256;2024-01-10T12:01:30;16.90;33.90
3923;DHT22;1976;51.694;6.256;2024-01-10T12:03:56;17.30;33.50
3923;DHT22;1976;51.694;6.256;2024-01-10T12:06:24;17.50;33.50
3923;DHT22;1976;51.694;6.256;2024-01-10T12:08:50;18.00;33.80
3923;DHT22;1976;51.694;6.256;2024-01-10T12:11:16;18.60;32.80
3923;DHT22;1976;51.694;6.256;2024-01-10T12:13:42;18.60;31.80
3923;DHT22;1976;51.694;6.256;2024-01-10T12:16:08;18.70;32.30
3923;DHT22;1976;51.694;6.256;2024-01-10T12:18:34;19.10;32.20
3923;DHT22;1976;51.694;6.256;2024-01-10T12:20:59;19.10;31.10
3923;DHT22;1976;51.694;6.256;2024-01-10T12:23:25;19.30;31.20
3923;DHT22;1976;51.694;6.256;2024-01-10T12:25:56;19.40;31.10
3923;DHT22;1976;51.694;6.256;2024-01-10T12:28:21;19.50;30.60
3923;DHT22;1976;51.694;6.256;2024-01-10T12:30:48;20.00;31.00
3923;DHT22;1976;51.694;6.256;2024-01-10T12:33:14;20.60;30.90
3923;DHT22;1976;51.694;6.256;2024-01-10T12:35:39;20.70;30.20
3923;DHT22;1976;51.694;6.256;2024-01-10T12:38:10;20.40;29.60
3923;DHT22;1976;51.694;6.256;2024-01-10T12:40:37;20.30;29.60
3923;DHT22;1976;51.694;6.256;2024-01-10T12:43:04;20.00;29.20
3923;DHT22;1976;51.694;6.256;2024-01-10T12:45:29;20.00;29.70
3923;DHT22;1976;51.694;6.256;2024-01-10T12:47:55;20.00;29.50
3923;DHT22;1976;51.694;6.256;2024-01-10T12:50:22;19.80;29.40
3923;DHT22;1976;51.694;6.256;2024-01-10T12:52:47;19.90;29.10
3923;DHT22;1976;51.694;6.256;2024-01-10T12:55:14;20.10;29.30
3923;DHT22;1976;51.694;6.256;2024-01-10T12:57:40;20.10;28.90
3923;DHT22;1976;51.694;6.256;2024-01-10T13:00:07;20.20;28.90
3923;DHT22;1976;51.694;6.256;2024-01-10T13:02:35;20.20;28.80
3923;DHT22;1976;51.694;6.256;2024-01-10T13:05:05;20.20;28.80
3923;DHT22;1976;51.694;6.256;2024-01-10T13:07:35;19.80;28.60
3923;DHT22;1976;51.694;6.256;2024-01-10T13:10:01;19.50;28.30
3923;DHT22;1976;51.694;6.256;2024-01-10T13:12:27;19.10;28.20
3923;DHT22;1976;51.694;6.256;2024-01-10T13:14:52;19.10;28.80
3923;DHT22;1976;51.694;6.256;2024-01-10T13:17:19;19.00;28.50
3923;DHT22;1976;51.694;6.256;2024-01-10T13:19:46;18.80;28.10
3923;DHT22;1976;51.694;6.256;2024-01-10T13:22:14;19.10;28.70
3923;DHT22;1976;51.694;6.256;2024-01-10T13:24:47;18.50;28.90
3923;DHT22;1976;51.694;6.256;2024-01-10T13:27:13;18.20;28.60
3923;DHT22;1976;51.694;6.256;2024-01-10T13:29:38;18.50;28.80
3923;DHT22;1976;51.694;6.256;2024-01-10T13:32:05;18.20;29.10
3923;DHT22;1976;51.694;6.256;2024-01-10T13:34:31;17.90;28.60
3923;DHT22;1976;51.694;6.256;2024-01-10T13:36:58;18.10;28.60
3923;DHT22;1976;51.694;6.256;2024-01-10T13:39:24;17.90;28.70
3923;DHT22;1976;51.694;6.256;2024-01-10T13:41:49;18.30;29.00
3923;DHT22;1976;51.694;6.256;2024-01-10T13:44:15;17.50;29.10
3923;DHT22;1976;51.694;6.256;2024-01-10T13:46:41;17.40;29.10
3923;DHT22;1976;51.694;6.256;2024-01-10T13:49:07;17.30;29.40
3923;DHT22;1976;51.694;6.256;2024-01-10T13:51:32;17.10;28.90
3923;DHT22;1976;51.694;6.256;2024-01-10T13:53:58;18.10;30.00
3923;DHT22;1976;51.694;6.256;2024-01-10T13:56:24;17.40;29.50
3923;DHT22;1976;51.694;6.256;2024-01-10T13:58:49;17.30;29.20
3923;DHT22;1976;51.694;6.256;2024-01-10T14:01:15;16.90;29.10
3923;DHT22;1976;51.694;6.256;2024-01-10T14:03:41;16.60;29.20
3923;DHT22;1976;51.694;6.256;2024-01-10T14:06:06;16.60;29.50
3923;DHT22;1976;51.694;6.256;2024-01-10T14:08:32;16.20;29.20
3923;DHT22;1976;51.694;6.256;2024-01-10T14:10:59;16.00;29.90
3923;DHT22;1976;51.694;6.256;2024-01-10T14:13:24;15.80;29.80
3923;DHT22;1976;51.694;6.256;2024-01-10T14:15:50;15.70;29.70
3923;DHT22;1976;51.694;6.256;2024-01-10T14:18:16;15.70;30.00
3923;DHT22;1976;51.694;6.256;2024-01-10T14:20:41;15.30;30.00
3923;DHT22;1976;51.694;6.256;2024-01-10T14:23:07;14.60;29.90
3923;DHT22;1976;51.694;6.256;2024-01-10T14:25:33;13.80;30.40
3923;DHT22;1976;51.694;6.256;2024-01-10T14:27:58;13.20;31.30
3923;DHT22;1976;51.694;6.256;2024-01-10T14:30:24;12.80;32.40
3923;DHT22;1976;51.694;6.256;2024-01-10T14:32:50;13.00;32.50
3923;DHT22;1976;51.694;6.256;2024-01-10T14:35:16;12.80;32.00
3923;DHT22;1976;51.694;6.256;2024-01-10T14:37:42;12.40;32.20
3923;DHT22;1976;51.694;6.256;2024-01-10T14:40:08;11.80;32.30
3923;DHT22;1976;51.694;6.256;2024-01-10T14:42:34;11.10;33.80
3923;DHT22;1976;51.694;6.256;2024-01-10T14:45:00;10.30;34.40
3923;DHT22;1976;51.694;6.256;2024-01-10T14:47:26;9.50;35.90
3923;DHT22;1976;51.694;6.256;2024-01-10T14:49:52;8.90;37.10
3923;DHT22;1976;51.694;6.256;2024-01-10T14:52:17;8.30;38.40
3923;DHT22;1976;51.694;6.256;2024-01-10T14:54:43;9.10;40.20
3923;DHT22;1976;51.694;6.256;2024-01-10T14:57:09;7.40;39.60
3923;DHT22;1976;51.694;6.256;2024-01-10T14:59:34;6.90;40.70
3923;DHT22;1976;51.694;6.256;2024-01-10T15:02:03;6.40;42.10
3923;DHT22;1976;51.694;6.256;2024-01-10T15:04:32;5.90;42.80
3923;DHT22;1976;51.694;6.256;2024-01-10T15:06:59;5.50;43.30
3923;DHT22;1976;51.694;6.256;2024-01-10T15:09:26;5.20;44.60
3923;DHT22;1976;51.694;6.256;2024-01-10T15:11:52;5.00;45.30
3923;DHT22;1976;51.694;6.256;2024-01-10T15:14:19;4.90;46.80
3923;DHT22;1976;51.694;6.256;2024-01-10T15:16:45;4.70;46.70
3923;DHT22;1976;51.694;6.256;2024-01-10T15:19:11;4.50;47.90
3923;DHT22;1976;51.694;6.256;2024-01-10T15:21:37;4.20;48.70
3923;DHT22;1976;51.694;6.256;2024-01-10T15:24:05;4.00;49.20
3923;DHT22;1976;51.694;6.256;2024-01-10T15:26:30;3.80;50.10
3923;DHT22;1976;51.694;6.256;2024-01-10T15:28:56;3.70;51.00
3923;DHT22;1976;51.694;6.256;2024-01-10T15:31:25;3.60;51.30
3923;DHT22;1976;51.694;6.256;2024-01-10T15:33:51;3.40;51.80
3923;DHT22;1976;51.694;6.256;2024-01-10T15:36:17;3.30;52.90
3923;DHT22;1976;51.694;6.256;2024-01-10T15:38:43;3.20;53.30
3923;DHT22;1976;51.694;6.256;2024-01-10T15:41:09;3.20;53.90
3923;DHT22;1976;51.694;6.256;2024-01-10T15:43:36;3.10;54.50
3923;DHT22;1976;51.694;6.256;2024-01-10T15:46:02;3.00;54.90
3923;DHT22;1976;51.694;6.256;2024-01-10T15:48:28;2.90;54.50
3923;DHT22;1976;51.694;6.256;2024-01-10T15:50:55;2.80;54.70
3923;DHT22;1976;51.694;6.256;2024-01-10T15:53:22;2.60;54.70
3923;DHT22;1976;51.694;6.256;2024-01-10T15:55:47;2.60;55.20
3923;DHT22;1976;51.694;6.256;2024-01-10T15:58:16;2.40;56.10
3923;DHT22;1976;51.694;6.256;2024-01-10T16:00:42;2.40;56.40
3923;DHT22;1976;51.694;6.256;2024-01-10T16:03:07;2.40;56.80
3923;DHT22;1976;51.694;6.256;2024-01-10T16:05:33;2.40;57.30
3923;DHT22;1976;51.694;6.256;2024-01-10T16:07:59;2.30;57.90
3923;DHT22;1976;51.694;6.256;2024-01-10T16:10:24;2.30;58.50
3923;DHT22;1976;51.694;6.256;2024-01-10T16:12:51;2.10;59.20
3923;DHT22;1976;51.694;6.256;2024-01-10T16:15:17;2.10;59.80
3923;DHT22;1976;51.694;6.256;2024-01-10T16:17:42;2.00;60.00
3923;DHT22;1976;51.694;6.256;2024-01-10T16:20:08;2.00;60.80
3923;DHT22;1976;51.694;6.256;2024-01-10T16:22:34;1.80;60.10
3923;DHT22;1976;51.694;6.256;2024-01-10T16:25:00;1.80;60.30
3923;DHT22;1976;51.694;6.256;2024-01-10T16:27:26;1.70;60.80
3923;DHT22;1976;51.694;6.256;2024-01-10T16:29:52;1.70;61.40
3923;DHT22;1976;51.694;6.256;2024-01-10T16:32:17;1.70;61.90
3923;DHT22;1976;51.694;6.256;2024-01-10T16:34:43;1.70;62.00
3923;DHT22;1976;51.694;6.256;2024-01-10T16:37:09;1.60;62.00
3923;DHT22;1976;51.694;6.256;2024-01-10T16:39:34;1.70;62.60
3923;DHT22;1976;51.694;6.256;2024-01-10T16:42:00;1.50;62.80
3923;DHT22;1976;51.694;6.256;2024-01-10T16:46:51;1.40;63.90
3923;DHT22;1976;51.694;6.256;2024-01-10T16:49:17;1.30;64.20
3923;DHT22;1976;51.694;6.256;2024-01-10T16:51:42;1.30;64.30
3923;DHT22;1976;51.694;6.256;2024-01-10T16:54:08;1.20;64.50
3923;DHT22;1976;51.694;6.256;2024-01-10T16:56:33;1.20;65.00
3923;DHT22;1976;51.694;6.256;2024-01-10T16:58:59;1.20;65.20
3923;DHT22;1976;51.694;6.256;2024-01-10T17:01:24;1.10;65.60
3923;DHT22;1976;51.694;6.256;2024-01-10T17:03:50;1.10;65.80
3923;DHT22;1976;51.694;6.256;2024-01-10T17:06:17;1.00;66.40
3923;DHT22;1976;51.694;6.256;2024-01-10T17:08:42;1.00;66.80
3923;DHT22;1976;51.694;6.256;2024-01-10T17:11:08;0.90;68.30
3923;DHT22;1976;51.694;6.256;2024-01-10T17:13:34;0.90;68.70
3923;DHT22;1976;51.694;6.256;2024-01-10T17:15:59;0.80;69.30
3923;DHT22;1976;51.694;6.256;2024-01-10T17:18:25;0.80;70.20
3923;DHT22;1976;51.694;6.256;2024-01-10T17:20:50;0.70;71.00
3923;DHT22;1976;51.694;6.256;2024-01-10T17:23:16;0.60;71.60
3923;DHT22;1976;51.694;6.256;2024-01-10T17:25:42;0.60;71.80
3923;DHT22;1976;51.694;6.256;2024-01-10T17:28:07;0.60;71.90
3923;DHT22;1976;51.694;6.256;2024-01-10T17:30:33;0.60;71.90
3923;DHT22;1976;51.694;6.256;2024-01-10T17:32:59;0.50;72.50
3923;DHT22;1976;51.694;6.256;2024-01-10T17:35:24;0.50;73.20
3923;DHT22;1976;51.694;6.256;2024-01-10T17:37:50;0.50;73.80
3923;DHT22;1976;51.694;6.256;2024-01-10T17:40:17;0.30;74.40
3923;DHT22;1976;51.694;6.256;2024-01-10T17:42:42;0.40;74.70
3923;DHT22;1976;51.694;6.256;2024-01-10T17:45:09;0.40;75.30
3923;DHT22;1976;51.694;6.256;2024-01-10T17:47:35;0.30;76.10
3923;DHT22;1976;51.694;6.256;2024-01-10T17:52:27;0.20;77.70
3923;DHT22;1976;51.694;6.256;2024-01-10T17:54:52;0.20;78.40
3923;DHT22;1976;51.694;6.256;2024-01-10T17:57:18;0.20;79.10
3923;DHT22;1976;51.694;6.256;2024-01-10T17:59:45;0.20;79.80
3923;DHT22;1976;51.694;6.256;2024-01-10T18:02:13;0.20;80.50
3923;DHT22;1976;51.694;6.256;2024-01-10T18:04:38;0.10;81.70
3923;DHT22;1976;51.694;6.256;2024-01-10T18:07:06;0.00;82.40
3923;DHT22;1976;51.694;6.256;2024-01-10T18:09:32;0.00;83.20
3923;DHT22;1976;51.694;6.256;2024-01-10T18:11:57;-0.10;84.50
3923;DHT22;1976;51.694;6.256;2024-01-10T18:14:23;-0.10;85.20
3923;DHT22;1976;51.694;6.256;2024-01-10T18:16:49;-0.10;86.10
3923;DHT22;1976;51.694;6.256;2024-01-10T18:19:15;-0.10;86.40
3923;DHT22;1976;51.694;6.256;2024-01-10T18:21:40;-0.10;86.10
3923;DHT22;1976;51.694;6.256;2024-01-10T18:24:06;-0.10;86.30
3923;DHT22;1976;51.694;6.256;2024-01-10T18:26:32;-0.10;86.40
3923;DHT22;1976;51.694;6.256;2024-01-10T18:28:57;-0.10;86.70
3923;DHT22;1976;51.694;6.256;2024-01-10T18:31:23;0.00;86.80
3923;DHT22;1976;51.694;6.256;2024-01-10T18:33:48;-0.10;86.30
3923;DHT22;1976;51.694;6.256;2024-01-10T18:36:14;-0.10;86.80
3923;DHT22;1976;51.694;6.256;2024-01-10T18:38:40;-0.10;86.60
3923;DHT22;1976;51.694;6.256;2024-01-10T18:41:06;-0.10;87.20
3923;DHT22;1976;51.694;6.256;2024-01-10T18:43:32;-0.10;86.90
3923;DHT22;1976;51.694;6.256;2024-01-10T18:45:58;-0.10;87.40
3923;DHT22;1976;51.694;6.256;2024-01-10T18:48:23;-0.20;87.40
3923;DHT22;1976;51.694;6.256;2024-01-10T18:50:49;-0.20;87.20
3923;DHT22;1976;51.694;6.256;2024-01-10T18:53:15;-0.20;86.90
3923;DHT22;1976;51.694;6.256;2024-01-10T18:55:40;-0.20;87.00
3923;DHT22;1976;51.694;6.256;2024-01-10T18:58:06;-0.10;87.30
3923;DHT22;1976;51.694;6.256;2024-01-10T19:00:36;-0.10;87.20
3923;DHT22;1976;51.694;6.256;2024-01-10T19:03:03;-0.10;87.00
3923;DHT22;1976;51.694;6.256;2024-01-10T19:05:29;-0.10;87.00
3923;DHT22;1976;51.694;6.256;2024-01-10T19:07:54;-0.20;86.90
3923;DHT22;1976;51.694;6.256;2024-01-10T19:10:20;-0.20;87.40
3923;DHT22;1976;51.694;6.256;2024-01-10T19:12:46;-0.30;87.60
3923;DHT22;1976;51.694;6.256;2024-01-10T19:15:11;-0.40;88.10
3923;DHT22;1976;51.694;6.256;2024-01-10T19:17:39;-0.40;88.30
3923;DHT22;1976;51.694;6.256;2024-01-10T19:20:06;-0.40;88.60
3923;DHT22;1976;51.694;6.256;2024-01-10T19:22:32;-0.40;88.90
3923;DHT22;1976;51.694;6.256;2024-01-10T19:24:57;-0.40;88.80
3923;DHT22;1976;51.694;6.256;2024-01-10T19:27:23;-0.40;89.40
3923;DHT22;1976;51.694;6.256;2024-01-10T19:29:49;-0.50;89.60
3923;DHT22;1976;51.694;6.256;2024-01-10T19:32:15;-0.50;89.80
3923;DHT22;1976;51.694;6.256;2024-01-10T19:34:40;-0.50;90.10
3923;DHT22;1976;51.694;6.256;2024-01-10T19:37:07;-0.60;90.10
3923;DHT22;1976;51.694;6.256;2024-01-10T19:39:33;-0.50;90.40
3923;DHT22;1976;51.694;6.256;2024-01-10T19:41:59;-0.50;90.60
3923;DHT22;1976;51.694;6.256;2024-01-10T19:44:25;-0.60;90.40
3923;DHT22;1976;51.694;6.256;2024-01-10T19:46:51;-0.60;90.80
3923;DHT22;1976;51.694;6.256;2024-01-10T19:49:20;-0.60;90.20
3923;DHT22;1976;51.694;6.256;2024-01-10T19:51:45;-0.70;90.40
3923;DHT22;1976;51.694;6.256;2024-01-10T19:54:11;-0.50;90.30
3923;DHT22;1976;51.694;6.256;2024-01-10T19:56:37;-0.60;90.30
3923;DHT22;1976;51.694;6.256;2024-01-10T19:59:03;-0.60;90.60
3923;DHT22;1976;51.694;6.256;2024-01-10T20:01:29;-0.60;90.70
3923;DHT22;1976;51.694;6.256;2024-01-10T20:03:55;-0.70;91.00
3923;DHT22;1976;51.694;6.256;2024-01-10T20:06:20;-0.70;91.20
3923;DHT22;1976;51.694;6.256;2024-01-10T20:08:46;-0.80;91.30
3923;DHT22;1976;51.694;6.256;2024-01-10T20:11:12;-0.90;91.30
3923;DHT22;1976;51.694;6.256;2024-01-10T20:13:38;-0.90;91.50
3923;DHT22;1976;51.694;6.256;2024-01-10T20:16:04;-0.90;91.50
3923;DHT22;1976;51.694;6.256;2024-01-10T20:18:30;-1.00;91.40
3923;DHT22;1976;51.694;6.256;2024-01-10T20:21:01;-1.00;91.70
3923;DHT22;1976;51.694;6.256;2024-01-10T20:23:27;-1.10;91.70
3923;DHT22;1976;51.694;6.256;2024-01-10T20:25:53;-1.10;92.10
3923;DHT22;1976;51.694;6.256;2024-01-10T20:28:18;-1.00;92.40
3923;DHT22;1976;51.694;6.256;2024-01-10T20:30:45;-1.00;92.40
3923;DHT22;1976;51.694;6.256;2024-01-10T20:33:11;-1.00;92.60
3923;DHT22;1976;51.694;6.256;2024-01-10T20:35:36;-1.00;92.70
3923;DHT22;1976;51.694;6.256;2024-01-10T20:38:02;-0.90;92.50
3923;DHT22;1976;51.694;6.256;2024-01-10T20:40:28;-0.90;92.50
3923;DHT22;1976;51.694;6.256;2024-01-10T20:42:53;-0.90;92.70
3923;DHT22;1976;51.694;6.256;2024-01-10T20:45:19;-0.90;92.70
3923;DHT22;1976;51.694;6.256;2024-01-10T20:47:45;-0.80;92.50
3923;DHT22;1976;51.694;6.256;2024-01-10T20:52:38;-0.90;92.20
3923;DHT22;1976;51.694;6.256;2024-01-10T20:55:04;-0.90;92.20
3923;DHT22;1976;51.694;6.256;2024-01-10T20:57:30;-1.00;92.10
3923;DHT22;1976;51.694;6.256;2024-01-10T20:59:55;-1.10;92.20
3923;DHT22;1976;51.694;6.256;2024-01-10T21:02:25;-1.10;92.30
3923;DHT22;1976;51.694;6.256;2024-01-10T21:04:51;-1.10;92.50
3923;DHT22;1976;51.694;6.256;2024-01-10T21:07:16;-1.20;92.70
3923;DHT22;1976;51.694;6.256;2024-01-10T21:09:42;-1.20;93.00
3923;DHT22;1976;51.694;6.256;2024-01-10T21:12:09;-1.30;93.10
3923;DHT22;1976;51.694;6.256;2024-01-10T21:14:39;-1.30;93.10
3923;DHT22;1976;51.694;6.256;2024-01-10T21:17:13;-1.30;93.30
3923;DHT22;1976;51.694;6.256;2024-01-10T21:19:39;-1.30;93.50
3923;DHT22;1976;51.694;6.256;2024-01-10T21:22:05;-1.30;93.00
3923;DHT22;1976;51.694;6.256;2024-01-10T21:24:30;-1.30;93.40
3923;DHT22;1976;51.694;6.256;2024-01-10T21:26:59;-1.30;94.60
3923;DHT22;1976;51.694;6.256;2024-01-10T21:29:25;-1.20;96.40
3923;DHT22;1976;51.694;6.256;2024-01-10T21:31:51;-1.20;96.90
3923;DHT22;1976;51.694;6.256;2024-01-10T21:34:18;-1.20;97.20
3923;DHT22;1976;51.694;6.256;2024-01-10T21:36:44;-1.20;97.40
3923;DHT22;1976;51.694;6.256;2024-01-10T21:39:09;-1.10;98.80
3923;DHT22;1976;51.694;6.256;2024-01-10T21:41:35;-1.10;99.30
3923;DHT22;1976;51.694;6.256;2024-01-10T21:44:00;0.10;99.90
3923;DHT22;1976;51.694;6.256;2024-01-10T21:46:26;-1.10;99.90
3923;DHT22;1976;51.694;6.256;2024-01-10T21:48:52;-1.20;99.90
3923;DHT22;1976;51.694;6.256;2024-01-10T21:51:20;-1.20;99.90
3923;DHT22;1976;51.694;6.256;2024-01-10T21:53:46;-1.10;99.90
3923;DHT22;1976;51.694;6.256;2024-01-10T21:56:12;-1.10;99.90
3923;DHT22;1976;51.694;6.256;2024-01-10T21:58:38;-1.10;99.90
3923;DHT22;1976;51.694;6.256;2024-01-10T22:01:04;-1.10;99.90
3923;DHT22;1976;51.694;6.256;2024-01-10T22:03:31;-1.10;99.90
3923;DHT22;1976;51.694;6.256;2024-01-10T22:05:57;-1.20;99.90
3923;DHT22;1976;51.694;6.256;2024-01-10T22:08:22;-1.10;99.90
3923;DHT22;1976;51.694;6.256;2024-01-10T22:10:48;-1.20;99.90
3923;DHT22;1976;51.694;6.256;2024-01-10T22:13:13;-1.30;99.90
3923;DHT22;1976;51.694;6.256;2024-01-10T22:15:39;-1.10;99.90
3923;DHT22;1976;51.694;6.256;2024-01-10T22:18:05;-1.10;99.90
3923;DHT22;1976;51.694;6.256;2024-01-10T22:20:30;-1.20;99.50
3923;DHT22;1976;51.694;6.256;2024-01-10T22:22:56;-1.20;99.40
3923;DHT22;1976;51.694;6.256;2024-01-10T22:30:16;-1.30;99.30
3923;DHT22;1976;51.694;6.256;2024-01-10T22:32:42;-1.20;99.10
3923;DHT22;1976;51.694;6.256;2024-01-10T22:35:07;-1.40;97.50
3923;DHT22;1976;51.694;6.256;2024-01-10T22:39:59;-1.50;97.10
3923;DHT22;1976;51.694;6.256;2024-01-10T22:42:25;-1.60;97.10
3923;DHT22;1976;51.694;6.256;2024-01-10T22:44:50;-1.80;96.50
3923;DHT22;1976;51.694;6.256;2024-01-10T22:52:08;-1.80;96.90
3923;DHT22;1976;51.694;6.256;2024-01-10T22:56:59;-1.90;96.90
3923;DHT22;1976;51.694;6.256;2024-01-10T22:59:25;-2.00;97.20
3923;DHT22;1976;51.694;6.256;2024-01-10T23:04:18;-2.00;97.30
3923;DHT22;1976;51.694;6.256;2024-01-10T23:06:43;-2.10;97.30
3923;DHT22;1976;51.694;6.256;2024-01-10T23:09:09;-2.20;97.20
3923;DHT22;1976;51.694;6.256;2024-01-10T23:14:05;-2.20;97.30
3923;DHT22;1976;51.694;6.256;2024-01-10T23:16:31;-2.20;97.60
3923;DHT22;1976;51.694;6.256;2024-01-10T23:18:56;-2.30;97.50
3923;DHT22;1976;51.694;6.256;2024-01-10T23:21:22;-2.30;97.80
3923;DHT22;1976;51.694;6.256;2024-01-10T23:23:47;-2.30;97.80
3923;DHT22;1976;51.694;6.256;2024-01-10T23:26:13;-2.30;98.00
3923;DHT22;1976;51.694;6.256;2024-01-10T23:28:39;-2.30;98.10
3923;DHT22;1976;51.694;6.256;2024-01-10T23:31:05;-2.40;97.80
3923;DHT22;1976;51.694;6.256;2024-01-10T23:33:33;-2.30;98.10
3923;DHT22;1976;51.694;6.256;2024-01-10T23:35:59;-2.40;97.90
3923;DHT22;1976;51.694;6.256;2024-01-10T23:38:24;-2.40;98.00
3923;DHT22;1976;51.694;6.256;2024-01-10T23:40:50;-2.40;98.10
3923;DHT22;1976;51.694;6.256;2024-01-10T23:43:16;-2.40;98.30
3923;DHT22;1976;51.694;6.256;2024-01-10T23:45:42;-2.40;98.30
3923;DHT22;1976;51.694;6.256;2024-01-10T23:48:08;-2.40;98.20
3923;DHT22;1976;51.694;6.256;2024-01-10T23:50:33;-2.50;98.20
3923;DHT22;1976;51.694;6.256;2024-01-10T23:52:59;-2.50;98.30
3923;DHT22;1976;51.694;6.256;2024-01-10T23:55:25;-2.50;98.50
3923;DHT22;1976;51.694;6.256;2024-01-10T23:57:51;-2.50;98.40
